Time;durP1;ratioP1;P1;durP2;ratioP2;P2;SDS_P1;SDS_P2;PMS_P1;PMS_P2;Temp;Humidity;BMP_temperature;BMP_pressure;BME280_temperature;BME280_humidity;BME280_pressure;Samples;Min_cycle;Max_cycle;Signal;HPM_P1;HPM_P2
2022/01/11 00:02:06;;;;;;;2.33;2.22;;;3.10;95.40;;;;;;5065083;28;20264;-79
2022/01/11 00:04:33;;;;;;;1.92;1.83;;;3.10;95.60;;;;;;5062454;28;20273;-79
2022/01/11 00:07:03;;;;;;;2.33;2.22;;;3.10;95.80;;;;;;5066836;28;20190;-78
2022/01/11 00:09:34;;;;;;;2.40;2.30;;;3.10;95.00;;;;;;5069761;28;20217;-79
2022/01/11 00:12:06;;;;;;;2.08;1.98;;;3.20;94.50;;;;;;5069704;28;20285;-81
2022/01/11 00:14:34;;;;;;;2.42;2.33;;;3.20;95.00;;;;;;5064320;28;20268;-79
2022/01/11 00:17:01;;;;;;;2.85;2.45;;;3.20;95.60;;;;;;5070414;28;20198;-79
2022/01/11 00:19:29;;;;;;;2.60;2.50;;;3.10;95.40;;;;;;5064785;28;20238;-79
2022/01/11 00:21:58;;;;;;;2.50;2.40;;;3.00;95.40;;;;;;5069164;28;20226;-79
2022/01/11 00:24:28;;;;;;;2.70;2.60;;;3.00;95.50;;;;;;5068037;28;20309;-80
2022/01/11 00:26:58;;;;;;;2.80;2.70;;;3.00;95.70;;;;;;5068511;28;20665;-80
2022/01/11 00:29:27;;;;;;;2.70;2.60;;;3.00;95.90;;;;;;5068254;28;20226;-79
2022/01/11 00:31:57;;;;;;;2.45;2.35;;;3.00;95.90;;;;;;5070426;28;20229;-80
2022/01/11 00:34:25;;;;;;;2.33;2.22;;;3.00;95.90;;;;;;5064008;28;20300;-82
2022/01/11 00:36:53;;;;;;;2.40;2.30;;;3.00;95.40;;;;;;5071183;28;20604;-81
2022/01/11 00:39:20;;;;;;;2.25;2.15;;;3.20;94.70;;;;;;5071079;28;20279;-82
2022/01/11 00:41:47;;;;;;;2.45;2.35;;;3.20;95.00;;;;;;5061243;28;20206;-80
2022/01/11 00:44:14;;;;;;;2.75;2.65;;;3.20;95.40;;;;;;5066885;28;20272;-81
2022/01/11 00:46:44;;;;;;;2.80;2.70;;;3.20;95.90;;;;;;5064446;28;20260;-79
2022/01/11 00:49:11;;;;;;;2.22;2.13;;;3.10;95.80;;;;;;5059009;28;20258;-78
2022/01/11 00:51:38;;;;;;;2.40;2.30;;;3.00;96.00;;;;;;5048808;28;20225;-79
2022/01/11 00:54:05;;;;;;;2.53;2.42;;;3.00;96.20;;;;;;5048845;28;20222;-79
2022/01/11 00:56:33;;;;;;;2.30;2.20;;;3.00;96.50;;;;;;5063004;28;20202;-82
2022/01/11 00:59:00;;;;;;;2.20;2.10;;;3.00;96.40;;;;;;5068207;28;20275;-83
2022/01/11 01:01:33;;;;;;;2.60;2.50;;;3.10;95.60;;;;;;5060179;28;20240;-81
2022/01/11 01:04:02;;;;;;;2.38;2.28;;;3.10;95.60;;;;;;5062132;28;22001;-82
2022/01/11 01:06:29;;;;;;;2.50;2.40;;;3.20;95.40;;;;;;5036678;28;20199;-81
2022/01/11 01:08:57;;;;;;;2.50;2.40;;;3.10;95.70;;;;;;5041891;28;20716;-82
2022/01/11 01:11:24;;;;;;;2.70;2.60;;;3.10;95.30;;;;;;5045483;28;20195;-80
2022/01/11 01:13:52;;;;;;;2.22;2.13;;;3.10;95.20;;;;;;5044150;28;20661;-82
2022/01/11 01:16:20;;;;;;;2.33;2.22;;;3.10;95.50;;;;;;5045133;28;20207;-82
2022/01/11 01:18:47;;;;;;;2.30;2.20;;;3.00;95.70;;;;;;5043670;28;20623;-82
2022/01/11 01:21:16;;;;;;;2.30;2.20;;;3.00;95.40;;;;;;5048283;28;20284;-82
2022/01/11 01:23:43;;;;;;;2.40;2.30;;;3.00;95.90;;;;;;5045855;28;20199;-79
2022/01/11 01:26:11;;;;;;;2.47;2.38;;;3.00;96.00;;;;;;5042876;28;20256;-79
2022/01/11 01:28:38;;;;;;;2.50;2.40;;;3.00;96.00;;;;;;5043190;28;20218;-79
2022/01/11 01:31:06;;;;;;;2.50;2.40;;;3.10;95.50;;;;;;5047458;28;20199;-81
2022/01/11 01:33:34;;;;;;;2.65;2.45;;;3.20;95.20;;;;;;5041131;28;20218;-81
2022/01/11 01:36:05;;;;;;;2.38;2.28;;;3.20;95.30;;;;;;5046120;28;20222;-80
2022/01/11 01:38:35;;;;;;;2.28;2.17;;;3.20;95.30;;;;;;5047194;28;20195;-81
2022/01/11 01:41:11;;;;;;;2.10;2.00;;;3.20;95.30;;;;;;5043960;28;20229;-80
2022/01/11 01:43:38;;;;;;;2.60;2.50;;;3.30;95.40;;;;;;5046752;28;20203;-81
2022/01/11 01:46:05;;;;;;;2.53;2.42;;;3.20;95.30;;;;;;5046836;28;20219;-80
2022/01/11 01:48:32;;;;;;;2.53;2.42;;;3.30;94.90;;;;;;5041922;28;20219;-81
2022/01/11 01:51:00;;;;;;;2.30;2.20;;;3.40;95.00;;;;;;5045501;28;20230;-83
2022/01/11 01:53:27;;;;;;;2.75;2.65;;;3.40;94.60;;;;;;5043418;28;20964;-82
2022/01/11 01:55:56;;;;;;;2.30;2.20;;;3.50;94.40;;;;;;5046311;28;20215;-81
2022/01/11 01:58:25;;;;;;;2.42;2.33;;;3.60;94.50;;;;;;5045809;28;20207;-81
2022/01/11 02:00:55;;;;;;;2.50;2.40;;;3.60;94.40;;;;;;5049329;28;20235;-83
2022/01/11 02:03:26;;;;;;;2.50;2.40;;;3.60;94.20;;;;;;5051656;28;20293;-82
2022/01/11 02:05:55;;;;;;;2.28;2.17;;;3.60;94.30;;;;;;5045949;28;20211;-80
2022/01/11 02:08:22;;;;;;;2.50;2.40;;;3.50;94.30;;;;;;5049114;28;20272;-84
2022/01/11 02:10:49;;;;;;;2.47;2.38;;;3.50;94.20;;;;;;5040385;28;20218;-82
2022/01/11 02:13:18;;;;;;;2.38;2.28;;;3.50;94.60;;;;;;5045579;28;20546;-81
2022/01/11 02:15:46;;;;;;;2.70;2.60;;;3.40;94.40;;;;;;5044852;28;20277;-82
2022/01/11 02:18:22;;;;;;;2.60;2.50;;;3.40;94.70;;;;;;5046500;28;20191;-81
2022/01/11 02:20:53;;;;;;;2.47;2.38;;;3.30;95.30;;;;;;5037927;28;20258;-81
2022/01/11 02:23:21;;;;;;;2.40;2.30;;;3.20;95.30;;;;;;5040461;28;20199;-81
2022/01/11 02:25:48;;;;;;;2.30;2.20;;;3.10;95.30;;;;;;5053786;28;20273;-82
2022/01/11 02:28:18;;;;;;;2.60;2.50;;;3.00;95.80;;;;;;5066159;28;20205;-81
2022/01/11 02:30:45;;;;;;;2.33;2.17;;;3.00;96.20;;;;;;5059318;28;20640;-81
2022/01/11 02:33:22;;;;;;;2.13;2.03;;;3.00;95.40;;;;;;5062217;28;20264;-80
2022/01/11 02:35:52;;;;;;;2.83;2.65;;;3.20;95.30;;;;;;5058334;28;20226;-80
2022/01/11 02:38:19;;;;;;;2.58;2.45;;;3.30;95.00;;;;;;5060637;28;21140;-81
2022/01/11 02:40:47;;;;;;;2.53;2.38;;;3.40;94.90;;;;;;5060766;28;20218;-80
2022/01/11 02:43:14;;;;;;;2.33;2.22;;;3.40;94.70;;;;;;5063837;28;20194;-80
2022/01/11 02:45:41;;;;;;;2.35;2.25;;;3.50;94.60;;;;;;5057413;28;20300;-79
2022/01/11 02:48:08;;;;;;;2.30;2.20;;;3.50;94.70;;;;;;5059875;28;20247;-80
2022/01/11 02:50:35;;;;;;;2.70;2.60;;;3.60;94.60;;;;;;5057121;28;20622;-80
2022/01/11 02:53:04;;;;;;;2.20;2.10;;;3.50;94.90;;;;;;5061105;28;20194;-81
2022/01/11 02:55:33;;;;;;;2.53;2.42;;;3.40;94.80;;;;;;5060944;28;20245;-81
2022/01/11 02:58:00;;;;;;;2.53;2.38;;;3.40;94.90;;;;;;5059395;28;20229;-81
2022/01/11 03:00:27;;;;;;;2.20;2.10;;;3.40;95.10;;;;;;5059474;28;20214;-80
2022/01/11 03:02:54;;;;;;;2.28;2.17;;;3.30;95.10;;;;;;5065723;28;20215;-82
2022/01/11 03:05:21;;;;;;;2.40;2.30;;;3.30;94.80;;;;;;5058949;28;20270;-80
2022/01/11 03:07:49;;;;;;;2.78;2.58;;;3.20;95.30;;;;;;5060277;28;20712;-80
2022/01/11 03:10:28;;;;;;;2.70;2.60;;;3.10;95.20;;;;;;5062401;28;20760;-80
2022/01/11 03:12:55;;;;;;;2.47;2.38;;;3.10;95.20;;;;;;5061448;28;20211;-81
2022/01/11 03:15:22;;;;;;;3.20;3.00;;;3.10;95.70;;;;;;5063545;28;20248;-80
2022/01/11 03:17:49;;;;;;;2.90;2.80;;;3.10;95.40;;;;;;5061853;28;20202;-81
2022/01/11 03:20:17;;;;;;;2.80;2.70;;;3.00;95.60;;;;;;5056262;28;20214;-81
2022/01/11 03:22:44;;;;;;;2.63;2.53;;;3.00;95.90;;;;;;5064733;28;20190;-80
2022/01/11 03:25:12;;;;;;;2.85;2.75;;;2.90;96.10;;;;;;5065809;28;20214;-81
2022/01/11 03:27:42;;;;;;;2.35;2.25;;;2.90;96.20;;;;;;5061450;28;20201;-81
2022/01/11 03:30:10;;;;;;;2.47;2.38;;;2.90;96.20;;;;;;5065991;28;20214;-81
2022/01/11 03:32:38;;;;;;;2.45;2.35;;;2.80;96.40;;;;;;5061569;28;20198;-80
2022/01/11 03:35:06;;;;;;;2.53;2.42;;;2.80;96.10;;;;;;5061163;28;20222;-86
2022/01/11 03:37:33;;;;;;;2.72;2.63;;;2.80;96.00;;;;;;5065530;28;20215;-81
2022/01/11 03:40:00;;;;;;;2.60;2.50;;;2.90;95.70;;;;;;5060311;28;20210;-81
2022/01/11 03:42:27;;;;;;;2.63;2.53;;;2.90;95.90;;;;;;5065873;28;20202;-81
2022/01/11 03:44:56;;;;;;;2.72;2.63;;;2.90;96.50;;;;;;5061815;28;20628;-81
2022/01/11 03:47:24;;;;;;;2.70;2.60;;;2.90;96.90;;;;;;5060389;28;20950;-80
2022/01/11 03:49:51;;;;;;;2.70;2.60;;;2.90;96.50;;;;;;5063853;28;20241;-81
2022/01/11 03:52:19;;;;;;;2.38;2.28;;;2.90;96.30;;;;;;5062386;28;20198;-80
2022/01/11 03:55:03;;;;;;;2.60;2.50;;;3.00;96.10;;;;;;5064262;28;20695;-80
2022/01/11 03:57:33;;;;;;;2.65;2.55;;;3.10;96.00;;;;;;5064018;28;20564;-81
2022/01/11 04:00:04;;;;;;;2.33;2.22;;;3.10;96.00;;;;;;5058977;28;20218;-81
2022/01/11 04:02:32;;;;;;;2.70;2.60;;;3.10;95.90;;;;;;5058547;28;20268;-80
2022/01/11 04:04:59;;;;;;;2.13;2.03;;;3.00;96.00;;;;;;5059802;28;20218;-81
2022/01/11 04:07:28;;;;;;;2.33;2.22;;;3.10;95.80;;;;;;5060357;28;20194;-82
2022/01/11 04:09:57;;;;;;;2.55;2.45;;;3.10;95.90;;;;;;5063251;28;20596;-80
2022/01/11 04:12:25;;;;;;;2.47;2.38;;;3.00;96.10;;;;;;5057273;28;20793;-80
2022/01/11 04:14:52;;;;;;;2.72;2.63;;;3.00;95.90;;;;;;5057582;28;20230;-80
2022/01/11 04:17:21;;;;;;;2.80;2.65;;;3.00;96.10;;;;;;5044839;28;20207;-79
2022/01/11 04:19:48;;;;;;;2.80;2.70;;;3.00;95.90;;;;;;5047565;28;20258;-80
2022/01/11 04:22:15;;;;;;;2.65;2.55;;;3.00;95.90;;;;;;5042694;28;20201;-80
2022/01/11 04:24:42;;;;;;;2.60;2.50;;;3.10;96.00;;;;;;5045428;28;20227;-79
2022/01/11 04:27:10;;;;;;;2.80;2.70;;;3.10;96.10;;;;;;5041032;28;20268;-81
2022/01/11 04:29:36;;;;;;;2.40;2.30;;;3.10;95.90;;;;;;5047661;28;20219;-81
2022/01/11 04:32:04;;;;;;;2.30;2.20;;;3.10;95.80;;;;;;5047778;28;20199;-82
2022/01/11 04:34:33;;;;;;;2.53;2.42;;;3.20;95.60;;;;;;5043339;28;20195;-80
2022/01/11 04:37:00;;;;;;;2.28;2.17;;;3.20;95.70;;;;;;5049052;28;20693;-80
2022/01/11 04:39:28;;;;;;;2.50;2.40;;;3.30;95.70;;;;;;5047551;28;20981;-79
2022/01/11 04:41:55;;;;;;;3.03;2.92;;;3.30;95.60;;;;;;5045436;28;20199;-79
2022/01/11 04:44:22;;;;;;;2.53;2.42;;;3.30;95.80;;;;;;5050103;28;20194;-80
2022/01/11 04:46:49;;;;;;;2.60;2.40;;;3.30;96.30;;;;;;5047321;28;20238;-80
2022/01/11 04:49:16;;;;;;;2.53;2.33;;;3.20;96.00;;;;;;5047982;28;20199;-80
2022/01/11 04:51:46;;;;;;;2.35;2.25;;;3.20;96.00;;;;;;5048923;28;20227;-79
2022/01/11 04:54:13;;;;;;;2.60;2.50;;;3.20;96.20;;;;;;5046855;28;20286;-78
2022/01/11 04:56:40;;;;;;;2.53;2.42;;;3.20;95.90;;;;;;5044139;28;20219;-82
2022/01/11 04:59:08;;;;;;;2.75;2.65;;;3.20;95.90;;;;;;5049029;28;20207;-79
2022/01/11 05:01:35;;;;;;;3.35;3.15;;;3.10;96.20;;;;;;5069602;28;20223;-80
2022/01/11 05:04:03;;;;;;;2.92;2.72;;;3.10;96.30;;;;;;5066505;28;20211;-81
2022/01/11 05:06:30;;;;;;;2.40;2.30;;;3.10;96.30;;;;;;5071503;28;20225;-81
2022/01/11 05:08:59;;;;;;;3.10;2.90;;;3.10;96.20;;;;;;5065303;28;20202;-82
2022/01/11 05:11:26;;;;;;;2.78;2.67;;;3.10;96.30;;;;;;5059446;28;20222;-82
2022/01/11 05:13:53;;;;;;;2.45;2.35;;;3.00;96.10;;;;;;5064165;28;20198;-80
2022/01/11 05:16:20;;;;;;;2.90;2.80;;;2.90;96.30;;;;;;5069220;28;20221;-81
2022/01/11 05:18:47;;;;;;;2.90;2.80;;;2.90;96.30;;;;;;5066641;28;20210;-81
2022/01/11 05:21:15;;;;;;;3.00;2.80;;;2.90;96.60;;;;;;5065324;28;20214;-79
2022/01/11 05:23:42;;;;;;;3.22;3.03;;;2.80;96.70;;;;;;5070406;28;20264;-81
2022/01/11 05:26:10;;;;;;;2.90;2.80;;;2.80;96.70;;;;;;5066513;28;20220;-80
2022/01/11 05:28:37;;;;;;;2.60;2.50;;;2.80;96.60;;;;;;5070561;28;20260;-80
2022/01/11 05:31:05;;;;;;;14.75;10.38;;;2.80;96.70;;;;;;5064456;28;20227;-81
2022/01/11 05:33:32;;;;;;;8.93;7.32;;;2.80;96.60;;;;;;5069023;28;20202;-80
2022/01/11 05:36:00;;;;;;;6.68;5.97;;;2.80;96.70;;;;;;5066976;28;20275;-81
2022/01/11 05:38:27;;;;;;;5.22;4.72;;;2.80;96.80;;;;;;5068425;28;20226;-78
2022/01/11 05:40:54;;;;;;;4.38;4.07;;;2.70;96.90;;;;;;5066238;28;20218;-80
2022/01/11 05:43:23;;;;;;;3.47;3.28;;;2.60;97.10;;;;;;5065335;28;20198;-82
2022/01/11 05:45:50;;;;;;;3.25;3.05;;;2.50;97.70;;;;;;5067963;28;20272;-82
2022/01/11 05:48:17;;;;;;;3.13;3.03;;;2.40;97.80;;;;;;5068135;28;20195;-80
2022/01/11 05:50:45;;;;;;;2.90;2.80;;;2.30;97.90;;;;;;5065903;28;20689;-82
2022/01/11 05:53:12;;;;;;;3.03;2.92;;;2.30;97.60;;;;;;5073741;28;20194;-81
2022/01/11 05:55:39;;;;;;;2.83;2.72;;;2.30;98.10;;;;;;5065640;28;20218;-80
2022/01/11 05:58:06;;;;;;;3.08;2.97;;;2.30;97.90;;;;;;5067205;28;20198;-82
2022/01/11 06:00:35;;;;;;;2.80;2.70;;;2.40;97.50;;;;;;5066724;28;20214;-80
2022/01/11 06:03:03;;;;;;;3.05;2.85;;;2.40;97.40;;;;;;5068441;28;20190;-80
2022/01/11 06:05:32;;;;;;;3.33;2.70;;;2.50;97.40;;;;;;5060293;28;20222;-79
2022/01/11 06:07:59;;;;;;;2.60;2.50;;;2.60;96.90;;;;;;5067181;28;20717;-79
2022/01/11 06:10:26;;;;;;;2.58;2.47;;;2.80;96.80;;;;;;5065242;28;20226;-80
2022/01/11 06:12:53;;;;;;;3.13;2.92;;;3.00;96.50;;;;;;5063085;28;20191;-78
2022/01/11 06:15:20;;;;;;;2.67;2.58;;;3.00;96.40;;;;;;5063953;28;20225;-79
2022/01/11 06:17:48;;;;;;;3.60;3.10;;;3.00;96.50;;;;;;5063223;28;20194;-81
2022/01/11 06:20:15;;;;;;;2.85;2.75;;;2.90;96.50;;;;;;5066460;28;20222;-79
2022/01/11 06:22:43;;;;;;;3.17;2.80;;;2.90;96.50;;;;;;5065829;28;20194;-80
2022/01/11 06:25:11;;;;;;;3.25;3.05;;;2.90;96.50;;;;;;5061171;28;20301;-80
2022/01/11 06:27:40;;;;;;;2.53;2.40;;;3.10;96.50;;;;;;5064355;28;20195;-78
2022/01/11 06:30:09;;;;;;;2.90;2.80;;;3.20;96.40;;;;;;5065179;28;20223;-82
2022/01/11 06:32:36;;;;;;;3.00;2.90;;;3.20;96.20;;;;;;5061015;28;20261;-80
2022/01/11 06:35:06;;;;;;;3.75;3.20;;;3.30;96.00;;;;;;5064224;28;20202;-82
2022/01/11 06:37:35;;;;;;;2.90;2.70;;;3.30;96.10;;;;;;5065301;28;20202;-80
2022/01/11 06:40:03;;;;;;;5.15;3.70;;;3.20;96.20;;;;;;5061727;28;20649;-81
2022/01/11 06:42:30;;;;;;;3.38;3.08;;;3.10;96.50;;;;;;5069610;28;20665;-81
2022/01/11 06:44:58;;;;;;;3.25;3.00;;;3.00;96.90;;;;;;5068710;28;20236;-81
2022/01/11 06:47:25;;;;;;;3.08;2.83;;;2.90;96.90;;;;;;5060995;28;20202;-81
2022/01/11 06:49:52;;;;;;;2.90;2.70;;;2.80;97.00;;;;;;5060335;28;20201;-82
2022/01/11 06:52:21;;;;;;;2.28;2.17;;;2.60;97.00;;;;;;5066543;28;20214;-81
2022/01/11 06:54:48;;;;;;;3.03;2.83;;;2.60;97.10;;;;;;5060122;28;20191;-79
2022/01/11 06:57:15;;;;;;;2.60;2.50;;;2.60;97.50;;;;;;5060084;28;20728;-81
2022/01/11 06:59:42;;;;;;;3.10;3.00;;;2.60;97.10;;;;;;5063862;28;20203;-81
2022/01/11 07:02:09;;;;;;;2.60;2.50;;;2.70;96.90;;;;;;5065367;28;20276;-80
2022/01/11 07:04:37;;;;;;;2.60;2.50;;;2.80;96.70;;;;;;5063925;28;20199;-80
2022/01/11 07:07:05;;;;;;;2.63;2.53;;;2.80;96.80;;;;;;5070222;28;20599;-80
2022/01/11 07:09:34;;;;;;;2.97;2.80;;;2.80;96.80;;;;;;5065555;28;20219;-81
2022/01/11 07:12:02;;;;;;;5.63;3.08;;;2.70;97.10;;;;;;5046660;28;20276;-80
2022/01/11 07:14:29;;;;;;;3.38;3.17;;;2.60;97.40;;;;;;5045860;28;20230;-80
2022/01/11 07:16:57;;;;;;;4.60;3.17;;;2.50;97.90;;;;;;5046351;28;20323;-82
2022/01/11 07:19:24;;;;;;;3.45;3.15;;;2.40;98.30;;;;;;5042809;28;20203;-82
2022/01/11 07:21:51;;;;;;;4.07;3.78;;;2.20;98.50;;;;;;5042366;28;20632;-81
2022/01/11 07:24:19;;;;;;;3.33;3.13;;;2.10;98.80;;;;;;5040626;28;20203;-79
2022/01/11 07:26:48;;;;;;;3.28;3.00;;;1.90;99.20;;;;;;5046741;28;20216;-80
2022/01/11 07:29:15;;;;;;;3.33;3.13;;;1.90;99.00;;;;;;5048372;28;20738;-79
2022/01/11 07:31:42;;;;;;;2.92;2.83;;;1.90;99.30;;;;;;5043597;28;20227;-81
2022/01/11 07:34:10;;;;;;;3.80;3.47;;;1.90;99.10;;;;;;5041487;28;20263;-78
2022/01/11 07:36:38;;;;;;;3.28;3.10;;;2.00;98.90;;;;;;5041969;28;20227;-79
2022/01/11 07:39:05;;;;;;;3.53;3.33;;;2.10;99.00;;;;;;5040850;28;20611;-80
2022/01/11 07:41:32;;;;;;;3.72;3.33;;;2.10;98.80;;;;;;5040880;28;20210;-79
2022/01/11 07:44:01;;;;;;;3.38;3.17;;;2.20;98.40;;;;;;5044130;28;20226;-82
2022/01/11 07:46:28;;;;;;;3.67;3.38;;;2.40;98.00;;;;;;5052996;28;20219;-80
2022/01/11 07:48:55;;;;;;;3.83;3.63;;;2.50;97.90;;;;;;5046528;28;20229;-79
2022/01/11 07:51:22;;;;;;;3.90;3.70;;;2.70;97.50;;;;;;5043928;28;20223;-79
2022/01/11 07:53:52;;;;;;;3.40;3.20;;;2.70;97.50;;;;;;5046599;28;20211;-80
2022/01/11 07:56:19;;;;;;;3.65;3.38;;;2.70;97.70;;;;;;5051639;28;20230;-79
2022/01/11 07:58:47;;;;;;;3.85;3.55;;;2.70;98.60;;;;;;5049142;28;20203;-80
2022/01/11 08:01:16;;;;;;;3.22;3.03;;;2.60;98.20;;;;;;5044649;28;20230;-79
2022/01/11 08:03:45;;;;;;;3.92;3.72;;;2.60;98.20;;;;;;5048325;28;20203;-79
2022/01/11 08:06:13;;;;;;;3.42;3.22;;;2.50;98.30;;;;;;5045278;28;20219;-80
2022/01/11 08:08:40;;;;;;;4.20;3.90;;;2.50;98.40;;;;;;5045767;28;20187;-80
2022/01/11 08:11:10;;;;;;;3.95;3.65;;;2.40;98.80;;;;;;5045110;28;21034;-79
2022/01/11 08:13:37;;;;;;;4.25;3.95;;;2.40;98.60;;;;;;5042682;28;20241;-80
2022/01/11 08:16:05;;;;;;;3.58;3.30;;;2.40;98.90;;;;;;5038908;28;20215;-79
2022/01/11 08:18:34;;;;;;;3.45;3.28;;;2.40;98.50;;;;;;5044741;28;20196;-79
2022/01/11 08:21:01;;;;;;;3.35;3.15;;;2.60;98.10;;;;;;5049150;28;20697;-80
2022/01/11 08:23:29;;;;;;;5.15;4.65;;;2.90;97.80;;;;;;5045850;28;20210;-78
2022/01/11 08:25:56;;;;;;;8.88;6.50;;;3.60;97.60;;;;;;5036146;28;20245;-81
2022/01/11 08:28:25;;;;;;;6.53;5.88;;;4.80;96.80;;;;;;5041978;28;20199;-79
2022/01/11 08:30:53;;;;;;;5.32;4.93;;;5.80;95.80;;;;;;5048296;28;20747;-80
2022/01/11 08:33:20;;;;;;;3.22;3.03;;;6.60;95.20;;;;;;5040481;28;20282;-81
2022/01/11 08:35:48;;;;;;;3.35;3.05;;;7.20;93.90;;;;;;5043190;28;20218;-81
2022/01/11 08:38:16;;;;;;;3.30;3.10;;;7.70;93.10;;;;;;5046400;28;20226;-79
2022/01/11 08:40:43;;;;;;;3.47;3.17;;;8.20;92.30;;;;;;5042218;28;20237;-79
2022/01/11 08:43:10;;;;;;;3.63;3.35;;;8.60;92.00;;;;;;5039024;28;20269;-82
2022/01/11 08:45:38;;;;;;;3.38;3.15;;;8.80;92.20;;;;;;5044903;28;20245;-84
2022/01/11 08:48:06;;;;;;;3.88;3.30;;;9.10;92.10;;;;;;5050793;28;20234;-81
2022/01/11 08:50:34;;;;;;;3.80;3.50;;;9.30;91.30;;;;;;5034797;28;20225;-82
2022/01/11 08:53:02;;;;;;;4.38;3.17;;;9.40;90.70;;;;;;5048827;28;20214;-82
2022/01/11 08:55:29;;;;;;;2.75;2.55;;;9.40;90.40;;;;;;5039006;28;20222;-82
2022/01/11 08:57:57;;;;;;;2.58;2.47;;;9.50;90.60;;;;;;5047797;28;20229;-81
2022/01/11 09:00:26;;;;;;;4.80;2.38;;;9.60;90.50;;;;;;5060912;28;20195;-82
2022/01/11 09:02:54;;;;;;;4.57;2.45;;;9.70;90.70;;;;;;5059522;28;20203;-83
2022/01/11 09:05:23;;;;;;;4.28;2.20;;;9.90;90.20;;;;;;5048398;28;20658;-84
2022/01/11 09:07:51;;;;;;;3.95;2.30;;;10.20;89.80;;;;;;5048447;28;20215;-82
2022/01/11 09:10:20;;;;;;;2.70;2.50;;;10.40;88.60;;;;;;5051202;28;20207;-82
2022/01/11 09:12:47;;;;;;;2.60;2.40;;;10.60;88.30;;;;;;5043866;28;20239;-82
2022/01/11 09:15:15;;;;;;;2.10;2.00;;;10.60;87.40;;;;;;5047203;28;20196;-82
2022/01/11 09:17:44;;;;;;;2.30;2.17;;;10.80;87.70;;;;;;5055847;28;20223;-83
2022/01/11 09:20:13;;;;;;;2.70;2.50;;;11.10;87.50;;;;;;5049714;28;20195;-81
2022/01/11 09:22:41;;;;;;;6.55;4.93;;;11.60;86.50;;;;;;5051779;28;20219;-83
2022/01/11 09:25:10;;;;;;;3.50;3.22;;;12.60;84.30;;;;;;5061213;28;20203;-83
2022/01/11 09:27:39;;;;;;;2.80;2.60;;;14.10;80.00;;;;;;5052587;28;20219;-83
2022/01/11 09:30:08;;;;;;;2.20;2.10;;;15.80;75.50;;;;;;5048198;28;20203;-81
2022/01/11 09:32:36;;;;;;;2.40;2.20;;;17.10;68.70;;;;;;5047884;28;20298;-82
2022/01/11 09:35:04;;;;;;;2.20;2.10;;;18.20;67.10;;;;;;5053892;28;20210;-81
2022/01/11 09:37:31;;;;;;;1.98;1.83;;;19.30;62.40;;;;;;5047811;28;20219;-83
2022/01/11 09:39:58;;;;;;;2.28;2.13;;;19.80;60.40;;;;;;5046722;28;20202;-80
2022/01/11 09:42:26;;;;;;;2.67;2.13;;;20.70;59.30;;;;;;5051544;28;20219;-82
2022/01/11 09:44:58;;;;;;;2.50;2.10;;;21.10;57.20;;;;;;5053486;28;20195;-81
2022/01/11 09:47:25;;;;;;;2.78;2.13;;;21.00;55.80;;;;;;5042958;28;20237;-80
2022/01/11 09:49:53;;;;;;;2.10;2.00;;;21.10;55.70;;;;;;5048702;28;20226;-81
2022/01/11 09:52:20;;;;;;;2.38;2.25;;;20.90;55.10;;;;;;5052921;28;20635;-80
2022/01/11 09:54:48;;;;;;;2.67;2.33;;;21.00;55.40;;;;;;5050158;28;20198;-83
2022/01/11 09:57:15;;;;;;;1.90;1.80;;;21.20;54.20;;;;;;5066842;28;20210;-82
2022/01/11 09:59:43;;;;;;;3.35;2.42;;;20.60;54.10;;;;;;5063965;28;20335;-81
2022/01/11 10:02:13;;;;;;;2.38;2.15;;;19.10;55.40;;;;;;5073699;28;20218;-82
2022/01/11 10:04:41;;;;;;;2.35;2.10;;;17.90;57.10;;;;;;5069804;28;20219;-81
2022/01/11 10:07:10;;;;;;;2.33;1.95;;;16.50;59.90;;;;;;5070730;28;20222;-82
2022/01/11 10:09:45;;;;;;;2.75;2.55;;;15.20;62.60;;;;;;5066705;28;20695;-82
2022/01/11 10:12:13;;;;;;;2.45;2.13;;;14.00;66.70;;;;;;5063176;28;20226;-82
2022/01/11 10:14:47;;;;;;;3.10;2.47;;;13.30;69.40;;;;;;5063427;28;20226;-81
2022/01/11 10:17:19;;;;;;;2.35;2.22;;;13.00;71.00;;;;;;5059358;28;20299;-83
2022/01/11 10:19:48;;;;;;;2.05;1.95;;;12.60;72.50;;;;;;5058480;28;20226;-83
2022/01/11 10:22:19;;;;;;;3.00;2.70;;;12.30;73.00;;;;;;5053905;28;20225;-80
2022/01/11 10:24:48;;;;;;;3.45;2.13;;;12.10;74.50;;;;;;5052549;28;20195;-81
2022/01/11 10:27:19;;;;;;;5.13;2.15;;;12.30;74.30;;;;;;5062693;28;20257;-82
2022/01/11 10:29:48;;;;;;;3.83;2.00;;;12.40;74.20;;;;;;5059847;28;20260;-83
2022/01/11 10:32:23;;;;;;;2.58;2.38;;;12.60;73.50;;;;;;5065575;28;20237;-82
2022/01/11 10:34:53;;;;;;;3.42;2.20;;;12.80;74.10;;;;;;5055316;28;20225;-81
2022/01/11 10:37:30;;;;;;;2.50;2.30;;;12.90;74.00;;;;;;5056542;28;20222;-80
2022/01/11 10:40:07;;;;;;;4.95;2.70;;;12.80;75.90;;;;;;5055973;28;20649;-80
2022/01/11 10:42:38;;;;;;;2.53;2.35;;;12.90;74.50;;;;;;5051805;28;20218;-81
2022/01/11 10:45:09;;;;;;;2.20;2.00;;;12.80;72.90;;;;;;5060024;28;20224;-81
2022/01/11 10:47:40;;;;;;;1.92;1.83;;;12.90;73.90;;;;;;5059485;28;20214;-80
2022/01/11 10:50:11;;;;;;;1.92;1.83;;;13.10;74.30;;;;;;5056645;28;20198;-80
2022/01/11 10:52:39;;;;;;;2.08;1.90;;;13.20;73.70;;;;;;5063944;28;20225;-80
2022/01/11 10:55:09;;;;;;;2.10;2.00;;;13.20;72.30;;;;;;5054232;28;20218;-80
2022/01/11 10:57:39;;;;;;;3.60;1.80;;;13.30;73.30;;;;;;5061652;28;20290;-79
2022/01/11 11:00:19;;;;;;;2.10;1.90;;;13.10;72.50;;;;;;5054257;28;20203;-80
2022/01/11 11:03:02;;;;;;;2.92;2.15;;;13.00;72.70;;;;;;5053338;28;20650;-81
2022/01/11 11:05:32;;;;;;;2.17;2.00;;;13.20;72.70;;;;;;5055159;28;20194;-80
2022/01/11 11:08:10;;;;;;;2.05;1.85;;;13.10;72.70;;;;;;5060343;28;20226;-80
2022/01/11 11:10:46;;;;;;;2.00;1.90;;;13.40;73.10;;;;;;5054071;28;20218;-80
2022/01/11 11:13:25;;;;;;;2.30;2.10;;;13.40;69.50;;;;;;5056739;28;20226;-80
2022/01/11 11:15:53;;;;;;;1.95;1.85;;;13.20;69.80;;;;;;5056440;28;20202;-80
2022/01/11 11:18:32;;;;;;;2.00;1.90;;;13.10;71.70;;;;;;5059579;28;20234;-81
2022/01/11 11:21:17;;;;;;;1.85;1.70;;;12.90;70.60;;;;;;5062741;28;20198;-82
2022/01/11 11:23:44;;;;;;;3.92;2.28;;;12.70;70.90;;;;;;5042596;28;20230;-83
2022/01/11 11:26:12;;;;;;;3.70;2.97;;;12.60;71.20;;;;;;5046246;28;20191;-83
2022/01/11 11:28:39;;;;;;;6.18;4.15;;;12.60;72.00;;;;;;5078353;28;20267;-83
2022/01/11 11:31:46;;;;;;;2.72;2.53;;;12.70;71.40;;;;;;5102307;27;20293;-74
2022/01/11 11:34:13;;;;;;;2.60;2.40;;;12.70;70.70;;;;;;5087744;28;20212;-73
2022/01/11 11:36:42;;;;;;;3.20;2.22;;;12.70;71.40;;;;;;5087355;28;20203;-75
2022/01/11 11:39:13;;;;;;;2.45;2.25;;;12.70;72.50;;;;;;5090310;28;20216;-77
2022/01/11 11:41:43;;;;;;;2.40;2.20;;;12.60;73.20;;;;;;5087826;28;20295;-72
2022/01/11 11:44:12;;;;;;;2.55;2.35;;;12.40;72.70;;;;;;5089428;28;20197;-73
2022/01/11 11:46:48;;;;;;;3.75;2.60;;;12.30;73.30;;;;;;5089272;28;20194;-73
2022/01/11 11:49:19;;;;;;;2.42;2.22;;;12.40;73.50;;;;;;5094396;28;20201;-71
2022/01/11 11:51:46;;;;;;;2.63;2.42;;;12.50;73.30;;;;;;5089921;28;20289;-72
2022/01/11 11:54:15;;;;;;;2.92;2.72;;;12.70;73.50;;;;;;5094119;28;20196;-72
2022/01/11 11:56:45;;;;;;;2.67;2.47;;;12.80;72.70;;;;;;5089068;28;20195;-73
2022/01/11 11:59:13;;;;;;;2.28;2.17;;;12.80;73.00;;;;;;5091358;28;20204;-76
2022/01/11 12:01:42;;;;;;;2.25;2.15;;;12.90;73.30;;;;;;5094013;28;20220;-73
2022/01/11 12:04:13;;;;;;;2.67;2.47;;;13.10;72.70;;;;;;5090680;28;20993;-71
2022/01/11 12:06:41;;;;;;;2.10;2.00;;;13.10;72.20;;;;;;5088554;28;20557;-72
2022/01/11 12:09:10;;;;;;;1.90;1.80;;;12.90;71.80;;;;;;5087813;28;20190;-71
2022/01/11 12:11:39;;;;;;;1.83;1.73;;;12.80;71.90;;;;;;5089597;28;20225;-76
2022/01/11 12:14:07;;;;;;;2.63;2.42;;;12.60;71.70;;;;;;5088019;28;20197;-73
2022/01/11 12:16:42;;;;;;;2.60;2.40;;;12.60;73.00;;;;;;5089212;28;20952;-72
2022/01/11 12:19:41;;;;;;;2.22;2.03;;;12.60;73.40;;;;;;5085526;28;20267;-70
2022/01/11 12:22:21;;;;;;;2.80;2.60;;;12.80;73.50;;;;;;5082420;28;20217;-73
2022/01/11 12:24:50;;;;;;;2.15;1.83;;;12.80;73.20;;;;;;5086759;28;20291;-73
2022/01/11 12:27:21;;;;;;;2.60;2.50;;;12.70;72.50;;;;;;5088204;28;20303;-75
2022/01/11 12:29:58;;;;;;;4.82;1.88;;;12.60;71.90;;;;;;5085110;28;20684;-74
2022/01/11 12:32:27;;;;;;;2.42;2.10;;;12.70;73.10;;;;;;5091928;28;20220;-73
2022/01/11 12:35:00;;;;;;;2.05;1.95;;;12.60;72.00;;;;;;5093676;28;20284;-73
2022/01/11 12:37:30;;;;;;;1.80;1.70;;;12.50;71.70;;;;;;5091199;28;20220;-73
2022/01/11 12:40:22;;;;;;;2.35;2.17;;;12.30;71.60;;;;;;5092779;28;20728;-74
2022/01/11 12:42:53;;;;;;;2.53;2.33;;;12.30;72.90;;;;;;5067717;28;20232;-75
2022/01/11 12:45:58;;;;;;;2.10;2.00;;;12.40;73.00;;;;;;5078672;28;20242;-73
2022/01/11 12:49:06;;;;;;;2.08;1.98;;;12.40;71.10;;;;;;5078310;28;20599;-76
2022/01/11 12:51:57;;;;;;;2.20;2.00;;;12.20;72.10;;;;;;5076969;28;20225;-76
2022/01/11 12:54:29;;;;;;;2.35;2.15;;;12.20;73.50;;;;;;5077882;28;20683;-72
2022/01/11 12:56:58;;;;;;;2.22;2.13;;;12.00;74.20;;;;;;5082728;28;20629;-71
2022/01/11 12:59:28;;;;;;;2.10;2.00;;;12.20;75.00;;;;;;5075095;28;20575;-71
2022/01/11 13:04:52;;;;;;;3.90;2.45;;;12.10;74.70;;;;;;5017199;28;20278;-74
2022/01/11 13:07:23;;;;;;;2.65;2.45;;;12.10;74.20;;;;;;5017851;28;20302;-76